Time;durP1;ratioP1;P1;durP2;ratioP2;P2;SDS_P1;SDS_P2;PMS_P1;PMS_P2;Temp;Humidity;BMP_temperature;BMP_pressure;BME280_temperature;BME280_humidity;BME280_pressure;Samples;Min_cycle;Max_cycle;Signal;HPM_P1;HPM_P2
2023/02/07 00:01:57;;;;;;;28.35;15.90;;;-0.20;99.90;;;;;;5073706;28;20020;-38
2023/02/07 00:04:22;;;;;;;30.85;16.60;;;-0.20;99.90;;;;;;5074151;28;20132;-38
2023/02/07 00:06:48;;;;;;;26.75;15.50;;;-0.20;99.90;;;;;;5073598;28;20193;-38
2023/02/07 00:09:14;;;;;;;30.05;16.65;;;-0.10;99.90;;;;;;5070714;28;20060;-39
2023/02/07 00:11:40;;;;;;;33.60;17.35;;;-0.10;99.90;;;;;;5053526;28;20083;-38
2023/02/07 00:14:07;;;;;;;37.17;19.65;;;0.00;99.90;;;;;;5053771;28;20092;-38
2023/02/07 00:16:33;;;;;;;30.60;17.05;;;0.00;99.90;;;;;;5053405;28;20021;-38
2023/02/07 00:18:59;;;;;;;33.53;18.25;;;-0.10;99.90;;;;;;5053788;28;20030;-39
2023/02/07 00:21:25;;;;;;;28.67;16.50;;;-0.10;99.90;;;;;;5054254;28;20101;-39
2023/02/07 00:23:52;;;;;;;28.52;16.15;;;0.00;99.90;;;;;;5060772;28;20423;-39
2023/02/07 00:26:19;;;;;;;29.65;16.65;;;0.00;99.90;;;;;;5070602;28;20016;-39
2023/02/07 00:28:46;;;;;;;29.05;17.73;;;0.00;99.90;;;;;;5073987;28;20138;-38
2023/02/07 00:31:18;;;;;;;33.53;17.05;;;-0.10;99.90;;;;;;5071867;28;20025;-38
2023/02/07 00:33:45;;;;;;;29.98;17.25;;;-0.20;99.90;;;;;;5069504;28;20024;-39
2023/02/07 00:36:16;;;;;;;32.40;17.52;;;-0.20;99.90;;;;;;5070052;28;20497;-39
2023/02/07 00:38:44;;;;;;;29.30;16.52;;;-0.20;99.90;;;;;;5070410;28;20499;-39
2023/02/07 00:41:13;;;;;;;27.77;15.75;;;-0.30;99.90;;;;;;5052813;28;20074;-39
2023/02/07 00:43:40;;;;;;;30.33;16.37;;;-0.40;99.90;;;;;;5050316;28;20041;-38
2023/02/07 00:46:05;;;;;;;30.50;17.10;;;-0.40;99.90;;;;;;5050194;28;20260;-39
2023/02/07 00:48:32;;;;;;;33.60;17.27;;;-0.50;99.90;;;;;;5050190;28;20029;-38
2023/02/07 00:50:58;;;;;;;31.52;16.95;;;-0.60;99.90;;;;;;5046974;28;20021;-38
2023/02/07 00:53:25;;;;;;;32.72;17.77;;;-0.60;99.90;;;;;;5057122;28;20029;-38
2023/02/07 00:55:51;;;;;;;28.42;16.23;;;-0.60;99.90;;;;;;5063137;28;20021;-38
2023/02/07 00:58:17;;;;;;;32.42;16.60;;;-0.70;99.90;;;;;;5069651;28;20524;-38
2023/02/07 01:00:42;;;;;;;30.27;17.30;;;-0.70;99.90;;;;;;5070047;28;20107;-38
2023/02/07 01:03:08;;;;;;;35.00;18.15;;;-0.70;99.90;;;;;;5069749;28;20024;-38
2023/02/07 01:05:34;;;;;;;31.08;18.10;;;-0.80;99.90;;;;;;5069520;28;20108;-38
2023/02/07 01:07:59;;;;;;;36.25;17.88;;;-0.80;99.90;;;;;;5069696;28;20074;-38
2023/02/07 01:10:25;;;;;;;33.40;17.45;;;-0.80;99.90;;;;;;5057731;28;20035;-38
2023/02/07 01:12:52;;;;;;;32.80;17.05;;;-0.80;99.90;;;;;;5049621;28;20347;-38
2023/02/07 01:15:18;;;;;;;33.28;17.92;;;-0.90;99.90;;;;;;5049388;28;20056;-38
2023/02/07 01:17:44;;;;;;;32.97;17.35;;;-0.90;99.90;;;;;;5049759;28;20032;-38
2023/02/07 01:20:10;;;;;;;34.03;17.77;;;-0.90;99.90;;;;;;5049860;28;20025;-37
2023/02/07 01:22:37;;;;;;;32.60;17.42;;;-1.00;99.90;;;;;;5053122;28;20085;-37
2023/02/07 01:25:03;;;;;;;30.40;16.90;;;-1.00;99.90;;;;;;5060540;28;20071;-38
2023/02/07 01:27:29;;;;;;;37.65;19.35;;;-1.00;99.90;;;;;;5064343;28;20038;-38
2023/02/07 01:29:54;;;;;;;36.85;20.38;;;-1.10;99.90;;;;;;5049833;28;20425;-37
2023/02/07 01:32:20;;;;;;;42.83;19.88;;;-1.10;99.90;;;;;;5049365;28;20083;-37
2023/02/07 01:34:46;;;;;;;41.35;21.65;;;-1.10;99.90;;;;;;5049129;28;20482;-37
2023/02/07 01:37:11;;;;;;;41.95;21.75;;;-1.10;99.90;;;;;;5049232;28;20141;-37
2023/02/07 01:39:37;;;;;;;43.95;21.30;;;-1.10;99.90;;;;;;5049124;28;20422;-37
2023/02/07 01:42:03;;;;;;;40.17;20.85;;;-1.10;99.90;;;;;;5049038;28;20032;-38
2023/02/07 01:44:29;;;;;;;41.97;21.00;;;-1.20;99.90;;;;;;5045948;28;20029;-38
2023/02/07 01:46:55;;;;;;;40.47;20.30;;;-1.20;99.90;;;;;;5047266;28;20033;-37
2023/02/07 01:49:27;;;;;;;41.50;21.00;;;-1.30;99.90;;;;;;5049203;28;20028;-38
2023/02/07 01:51:57;;;;;;;43.90;22.33;;;-1.30;99.90;;;;;;5049211;28;20490;-38
2023/02/07 01:54:24;;;;;;;;;;;-1.30;99.90;;;;;;5059238;28;20021;-37
2023/02/07 01:56:57;;;;;;;38.40;18.92;;;-1.30;99.90;;;;;;5068461;28;19909;-43
2023/02/07 01:59:24;;;;;;;39.45;19.95;;;-1.40;99.90;;;;;;5068897;28;20082;-37
2023/02/07 02:01:50;;;;;;;42.92;22.30;;;-1.50;99.90;;;;;;5068447;28;20016;-37
2023/02/07 02:04:15;;;;;;;44.25;22.90;;;-1.50;99.90;;;;;;5068764;28;20028;-37
2023/02/07 02:06:42;;;;;;;46.65;22.80;;;-1.50;99.90;;;;;;5068711;28;20073;-37
2023/02/07 02:09:11;;;;;;;40.03;21.30;;;-1.50;99.90;;;;;;5067697;28;20024;-37
2023/02/07 02:12:03;;;;;;;43.90;22.92;;;-1.60;99.90;;;;;;5047143;28;20048;-37
2023/02/07 02:14:55;;;;;;;52.38;23.83;;;-1.60;99.90;;;;;;5048340;28;20082;-37
2023/02/07 02:17:50;;;;;;;41.75;21.35;;;-1.70;99.90;;;;;;5048348;28;20029;-37
2023/02/07 02:20:38;;;;;;;47.47;21.52;;;-1.60;99.90;;;;;;5039886;28;20112;-37
2023/02/07 02:23:22;;;;;;;48.42;22.67;;;-1.70;99.90;;;;;;5055396;28;20013;-37
2023/02/07 02:26:06;;;;;;;47.05;21.45;;;-1.70;99.90;;;;;;5052852;28;20044;-37
2023/02/07 02:29:09;;;;;;;51.38;25.55;;;-1.70;99.90;;;;;;5068318;28;20025;-37
2023/02/07 02:32:02;;;;;;;42.40;20.13;;;-1.80;99.90;;;;;;5068069;28;20032;-37
2023/02/07 02:34:47;;;;;;;44.35;23.45;;;-1.80;99.90;;;;;;5068286;28;20069;-37
2023/02/07 02:37:23;;;;;;;50.30;24.48;;;-1.80;99.90;;;;;;5068341;28;20032;-37
2023/02/07 02:40:11;;;;;;;46.80;23.33;;;-1.90;99.90;;;;;;5061949;28;20458;-37
2023/02/07 02:42:45;;;;;;;50.47;23.73;;;-1.90;99.90;;;;;;5047947;28;20028;-37
2023/02/07 02:45:20;;;;;;;48.05;22.10;;;-1.90;99.90;;;;;;5047384;28;20540;-37
2023/02/07 02:47:48;;;;;;;50.17;23.85;;;-1.90;99.90;;;;;;5048048;28;20033;-37
2023/02/07 02:50:20;;;;;;;54.00;23.90;;;-1.90;99.90;;;;;;5048464;28;20021;-37
2023/02/07 02:52:45;;;;;;;56.15;24.35;;;-2.00;99.90;;;;;;5052275;28;20163;-37
2023/02/07 02:55:12;;;;;;;50.83;23.98;;;-2.00;99.90;;;;;;5058548;28;20086;-37
2023/02/07 02:58:05;;;;;;;48.50;24.17;;;-2.10;99.90;;;;;;5067978;28;20150;-37
2023/02/07 03:00:42;;;;;;;53.63;25.35;;;-2.00;99.90;;;;;;5068038;28;20055;-37
2023/02/07 03:03:19;;;;;;;53.75;24.85;;;-2.00;99.90;;;;;;5067347;28;20031;-37
2023/02/07 03:06:23;;;;;;;51.75;24.77;;;-2.10;99.90;;;;;;5067413;28;20013;-37
2023/02/07 03:09:10;;;;;;;58.10;26.90;;;-2.10;99.90;;;;;;5023514;28;20400;-37
2023/02/07 03:12:07;;;;;;;49.92;24.38;;;-2.10;99.90;;;;;;5046978;28;20029;-37
2023/02/07 03:14:51;;;;;;;59.00;27.60;;;-2.10;99.90;;;;;;5034063;28;20187;-38
2023/02/07 03:17:29;;;;;;;52.28;24.38;;;-2.10;99.90;;;;;;5039596;28;20393;-37
2023/02/07 03:20:13;;;;;;;54.22;24.95;;;-2.10;99.90;;;;;;5063023;28;20025;-37
2023/02/07 03:22:42;;;;;;;47.60;24.35;;;-2.20;99.90;;;;;;5051364;28;20017;-38
2023/02/07 03:25:10;;;;;;;46.97;23.73;;;-2.30;99.90;;;;;;5058837;28;20021;-38
2023/02/07 03:27:37;;;;;;;49.38;24.15;;;-2.30;99.90;;;;;;5067440;28;20383;-38
2023/02/07 03:30:08;;;;;;;50.42;23.67;;;-2.30;99.90;;;;;;5059703;28;20099;-38
2023/02/07 03:32:37;;;;;;;55.92;26.65;;;-2.40;99.90;;;;;;5046734;28;20033;-38
2023/02/07 03:35:27;;;;;;;56.38;27.10;;;-2.30;99.90;;;;;;5046845;28;20268;-38
2023/02/07 03:37:56;;;;;;;57.17;25.70;;;-2.40;99.90;;;;;;5047459;28;20052;-44
2023/02/07 03:40:25;;;;;;;51.80;23.90;;;-2.30;99.90;;;;;;5047210;28;20017;-38
2023/02/07 03:43:07;;;;;;;48.90;22.48;;;-2.40;99.90;;;;;;5047479;28;20021;-38
2023/02/07 03:45:33;;;;;;;50.75;23.98;;;-2.40;99.90;;;;;;5045405;28;20467;-38
2023/02/07 03:47:59;;;;;;;47.70;24.10;;;-2.40;99.90;;;;;;5047208;28;20036;-38
2023/02/07 03:50:24;;;;;;;57.35;25.70;;;-2.50;99.90;;;;;;5047707;28;20086;-38
2023/02/07 03:52:50;;;;;;;55.05;24.45;;;-2.50;99.90;;;;;;5052063;28;20020;-38
2023/02/07 03:55:15;;;;;;;50.15;24.88;;;-2.50;99.90;;;;;;5050328;28;20474;-38
2023/02/07 03:57:41;;;;;;;54.97;26.25;;;-2.50;99.90;;;;;;5047445;28;20033;-38
2023/02/07 04:00:08;;;;;;;58.88;27.45;;;-2.50;99.90;;;;;;5047319;28;20082;-38
2023/02/07 04:02:33;;;;;;;52.10;25.58;;;-2.50;99.90;;;;;;5046866;28;20609;-38
2023/02/07 04:04:59;;;;;;;51.10;24.42;;;-2.60;99.90;;;;;;5046671;28;20100;-37
2023/02/07 04:07:25;;;;;;;48.97;23.77;;;-2.60;99.90;;;;;;5049237;28;20040;-37
2023/02/07 04:09:51;;;;;;;55.25;25.98;;;-2.60;99.90;;;;;;5051459;28;20017;-37
2023/02/07 04:12:16;;;;;;;51.40;24.65;;;-2.60;99.90;;;;;;5050832;28;20032;-37
2023/02/07 04:14:42;;;;;;;57.90;26.45;;;-2.50;99.90;;;;;;5050295;28;20556;-37
2023/02/07 04:17:07;;;;;;;62.60;29.13;;;-2.60;99.90;;;;;;5050457;28;20486;-38
2023/02/07 04:19:33;;;;;;;57.88;26.23;;;-2.60;99.90;;;;;;5050683;28;20029;-37
2023/02/07 04:21:58;;;;;;;66.10;29.20;;;-2.60;99.90;;;;;;5050306;28;20389;-38
2023/02/07 04:24:24;;;;;;;59.63;28.45;;;-2.60;99.90;;;;;;5060083;28;20387;-38
2023/02/07 04:26:50;;;;;;;58.15;25.83;;;-2.60;99.90;;;;;;5070539;28;20025;-37
2023/02/07 04:29:16;;;;;;;59.72;27.65;;;-2.60;99.90;;;;;;5070419;28;20107;-39
2023/02/07 04:31:41;;;;;;;59.17;26.63;;;-2.60;99.90;;;;;;5057169;28;20017;-37
2023/02/07 04:34:08;;;;;;;63.47;27.83;;;-2.60;99.90;;;;;;5050029;28;20017;-37
2023/02/07 04:36:34;;;;;;;59.15;27.88;;;-2.60;99.90;;;;;;5048392;28;20033;-37
2023/02/07 04:39:00;;;;;;;55.92;26.60;;;-2.60;99.90;;;;;;5049904;28;20029;-37
2023/02/07 04:41:26;;;;;;;64.70;29.00;;;-2.70;99.90;;;;;;5047343;28;20467;-36
2023/02/07 04:43:51;;;;;;;59.40;27.52;;;-2.70;99.90;;;;;;5050296;28;20264;-37
2023/02/07 04:46:17;;;;;;;58.90;26.88;;;-2.70;99.90;;;;;;5049987;28;20049;-38
2023/02/07 04:48:43;;;;;;;53.70;27.15;;;-2.70;99.90;;;;;;5050863;28;20485;-37
2023/02/07 04:51:08;;;;;;;57.13;28.13;;;-2.80;99.90;;;;;;5049492;28;20029;-38
2023/02/07 04:53:34;;;;;;;55.47;26.27;;;-2.80;99.90;;;;;;5048326;28;20020;-37
2023/02/07 04:56:00;;;;;;;53.78;26.52;;;-2.80;99.90;;;;;;5049069;28;20123;-37
2023/02/07 04:58:26;;;;;;;54.50;26.30;;;-2.80;99.90;;;;;;5049585;28;20017;-37
2023/02/07 05:00:52;;;;;;;57.92;27.48;;;-2.90;99.90;;;;;;5044667;28;20043;-37
2023/02/07 05:03:18;;;;;;;50.35;25.52;;;-2.90;99.90;;;;;;5046610;28;20489;-37
2023/02/07 05:05:44;;;;;;;59.42;26.98;;;-2.90;99.90;;;;;;5068723;28;20109;-38
2023/02/07 05:08:11;;;;;;;60.75;28.35;;;-2.90;99.90;;;;;;5070227;28;20024;-37
2023/02/07 05:10:37;;;;;;;55.25;26.60;;;-2.90;99.90;;;;;;5056433;28;20063;-36
2023/02/07 05:13:03;;;;;;;60.95;29.08;;;-3.00;99.90;;;;;;5048834;28;20037;-37
2023/02/07 05:15:29;;;;;;;58.47;28.60;;;-3.00;99.90;;;;;;5048777;28;20505;-37
2023/02/07 05:17:55;;;;;;;61.95;27.95;;;-3.00;99.90;;;;;;5048400;28;20032;-37
2023/02/07 05:20:22;;;;;;;63.55;28.75;;;-3.00;99.90;;;;;;5049267;28;20127;-37
2023/02/07 05:22:48;;;;;;;62.40;29.60;;;-3.00;99.90;;;;;;5049842;28;20028;-37
2023/02/07 05:25:13;;;;;;;68.50;29.35;;;-3.00;99.90;;;;;;5047820;28;20090;-37
2023/02/07 05:27:39;;;;;;;59.22;26.67;;;-3.00;99.90;;;;;;5049804;28;20029;-37
2023/02/07 05:30:06;;;;;;;64.13;29.55;;;-3.00;99.90;;;;;;5049345;28;20037;-37
2023/02/07 05:35:16;;;;;;;57.47;26.92;;;-3.10;99.90;;;;;;5049364;28;20162;-37
2023/02/07 05:37:41;;;;;;;61.60;27.58;;;-3.10;99.90;;;;;;5049536;28;20475;-38
2023/02/07 05:40:07;;;;;;;58.20;26.83;;;-3.20;99.90;;;;;;5049317;28;20087;-38
2023/02/07 05:42:33;;;;;;;61.50;28.20;;;-3.20;99.90;;;;;;5047428;28;20439;-37
2023/02/07 05:44:58;;;;;;;63.17;29.33;;;-3.20;99.90;;;;;;5048224;28;20021;-37
2023/02/07 05:47:24;;;;;;;61.75;29.02;;;-3.20;99.90;;;;;;5048828;28;20496;-37
2023/02/07 05:49:49;;;;;;;63.25;27.90;;;-3.20;99.90;;;;;;5054227;28;20048;-37
2023/02/07 05:52:16;;;;;;;62.20;28.88;;;-3.20;99.90;;;;;;5049224;28;20025;-37
2023/02/07 05:54:41;;;;;;;66.78;28.50;;;-3.20;99.90;;;;;;5048042;28;20108;-37
2023/02/07 05:57:07;;;;;;;61.00;27.30;;;-3.20;99.90;;;;;;5048411;28;20092;-37
2023/02/07 05:59:33;;;;;;;60.40;26.98;;;-3.20;99.90;;;;;;5048776;28;20045;-37
2023/02/07 06:01:58;;;;;;;60.22;26.88;;;-3.30;99.90;;;;;;5047987;28;20486;-37
2023/02/07 06:04:24;;;;;;;60.47;27.92;;;-3.30;99.90;;;;;;5048162;28;20090;-37
2023/02/07 06:06:49;;;;;;;64.03;28.83;;;-3.30;99.90;;;;;;5047780;28;20032;-37
2023/02/07 06:09:15;;;;;;;58.13;26.50;;;-3.30;99.90;;;;;;5048304;28;20073;-37
2023/02/07 06:11:41;;;;;;;70.25;30.30;;;-3.30;99.90;;;;;;5047878;28;20025;-37
2023/02/07 06:14:06;;;;;;;68.45;28.63;;;-3.30;99.90;;;;;;5064199;28;20055;-37
2023/02/07 06:16:32;;;;;;;61.17;27.40;;;-3.30;99.90;;;;;;5067594;28;20028;-37
2023/02/07 06:18:57;;;;;;;60.08;27.30;;;-3.40;99.90;;;;;;5062125;28;20462;-37
2023/02/07 06:21:23;;;;;;;61.22;27.80;;;-3.40;99.90;;;;;;5051643;28;20024;-37
2023/02/07 06:23:50;;;;;;;71.85;28.98;;;-3.40;99.90;;;;;;5048067;28;20028;-38
2023/02/07 06:26:16;;;;;;;65.35;28.60;;;-3.40;99.90;;;;;;5045159;28;20491;-38
2023/02/07 06:28:42;;;;;;;60.63;28.35;;;-3.40;99.90;;;;;;5045777;28;20044;-38
2023/02/07 06:31:07;;;;;;;64.55;28.15;;;-3.40;99.90;;;;;;5046860;28;20115;-38
2023/02/07 06:33:33;;;;;;;63.28;28.70;;;-3.40;99.90;;;;;;5048043;28;20017;-37
2023/02/07 06:35:58;;;;;;;63.30;28.73;;;-3.40;99.90;;;;;;5047545;28;20021;-37
2023/02/07 06:38:24;;;;;;;59.53;26.45;;;-3.40;99.90;;;;;;5048334;28;20580;-37
2023/02/07 06:40:49;;;;;;;63.30;28.13;;;-3.40;99.90;;;;;;5047883;28;20051;-38
2023/02/07 06:43:15;;;;;;;56.92;26.17;;;-3.50;99.90;;;;;;5047449;28;20408;-38
2023/02/07 06:45:41;;;;;;;63.75;29.20;;;-3.50;99.90;;;;;;5046893;28;20029;-43
2023/02/07 06:48:07;;;;;;;66.50;29.40;;;-3.50;99.90;;;;;;5047967;28;20083;-38
2023/02/07 06:50:32;;;;;;;67.50;29.92;;;-3.50;99.90;;;;;;5050110;28;20060;-38
2023/02/07 06:53:01;;;;;;;66.95;30.33;;;-3.50;99.90;;;;;;5043153;28;20401;-38
2023/02/07 06:55:28;;;;;;;67.00;28.92;;;-3.50;99.90;;;;;;5047146;28;20032;-38
2023/02/07 06:57:54;;;;;;;59.17;28.25;;;-3.50;99.90;;;;;;5061114;28;20497;-38
2023/02/07 07:00:20;;;;;;;69.18;30.02;;;-3.50;99.90;;;;;;5067597;28;20142;-38
2023/02/07 07:02:46;;;;;;;67.82;29.90;;;-3.50;99.90;;;;;;5067884;28;20020;-38
2023/02/07 07:05:12;;;;;;;64.63;29.27;;;-3.50;99.90;;;;;;5066351;28;20328;-38
2023/02/07 07:07:37;;;;;;;61.03;28.55;;;-3.50;99.90;;;;;;5068093;28;20028;-38
2023/02/07 07:10:03;;;;;;;60.70;27.80;;;-3.50;99.90;;;;;;5058954;28;20024;-38
2023/02/07 07:12:29;;;;;;;65.13;29.65;;;-3.40;99.90;;;;;;5047069;28;20655;-38
2023/02/07 07:14:55;;;;;;;56.80;28.63;;;-3.40;99.90;;;;;;5047355;28;20045;-38
2023/02/07 07:17:20;;;;;;;65.75;29.58;;;-3.50;99.90;;;;;;5046255;28;20013;-38
2023/02/07 07:19:46;;;;;;;67.60;31.15;;;-3.50;99.90;;;;;;5050254;28;20405;-39
2023/02/07 07:22:11;;;;;;;64.82;30.50;;;-3.50;99.90;;;;;;5063263;28;20025;-39
2023/02/07 07:24:37;;;;;;;71.55;30.85;;;-3.50;99.90;;;;;;5045315;28;20021;-38
2023/02/07 07:27:02;;;;;;;69.35;32.97;;;-3.40;99.90;;;;;;5045701;28;20040;-38
2023/02/07 07:29:28;;;;;;;65.72;30.52;;;-3.40;99.90;;;;;;5044635;28;20063;-38
2023/02/07 07:31:53;;;;;;;64.47;29.88;;;-3.30;99.90;;;;;;5046275;28;20051;-39
2023/02/07 07:34:19;;;;;;;60.85;28.05;;;-3.30;99.90;;;;;;5046553;28;20052;-38
2023/02/07 07:36:44;;;;;;;62.20;28.40;;;-3.30;99.90;;;;;;5044831;28;20457;-38
2023/02/07 07:39:10;;;;;;;62.42;29.63;;;-3.30;99.90;;;;;;5046206;28;20087;-38
2023/02/07 07:41:36;;;;;;;68.22;30.17;;;-3.20;99.90;;;;;;5052334;28;20027;-39
2023/02/07 07:44:01;;;;;;;61.67;30.98;;;-3.20;99.90;;;;;;5070417;28;20020;-38
2023/02/07 07:46:27;;;;;;;67.03;30.90;;;-3.10;99.90;;;;;;5070923;28;20412;-38
2023/02/07 07:48:53;;;;;;;57.53;27.05;;;-3.10;99.90;;;;;;5065304;28;20688;-39
2023/02/07 07:51:18;;;;;;;65.00;30.67;;;-3.10;99.90;;;;;;5061756;28;20043;-39
2023/02/07 07:53:44;;;;;;;70.88;31.80;;;-3.10;99.90;;;;;;5064410;28;20257;-38
2023/02/07 07:56:09;;;;;;;63.47;29.58;;;-3.00;99.90;;;;;;5050907;28;20032;-39
2023/02/07 07:58:35;;;;;;;68.40;32.40;;;-3.00;99.90;;;;;;5051484;28;20056;-39
2023/02/07 08:01:01;;;;;;;70.18;31.15;;;-2.90;99.90;;;;;;5051766;28;20070;-39
2023/02/07 08:03:27;;;;;;;59.65;29.63;;;-2.90;99.90;;;;;;5051529;28;20025;-39
2023/02/07 08:05:52;;;;;;;65.22;29.42;;;-2.80;99.90;;;;;;5050930;28;20159;-38
2023/02/07 08:08:21;;;;;;;66.63;30.17;;;-2.80;99.90;;;;;;5051499;28;20079;-39
2023/02/07 08:10:47;;;;;;;56.72;27.63;;;-2.80;99.90;;;;;;5051136;28;20101;-39
2023/02/07 08:13:15;;;;;;;71.40;32.42;;;-2.70;99.90;;;;;;5051090;28;20055;-38
2023/02/07 08:15:41;;;;;;;65.13;30.65;;;-2.70;99.90;;;;;;5050741;28;20075;-39
2023/02/07 08:18:07;;;;;;;64.10;29.80;;;-2.70;99.90;;;;;;5058839;28;20414;-39
2023/02/07 08:20:32;;;;;;;69.03;33.03;;;-2.60;99.90;;;;;;5056247;28;20028;-38
2023/02/07 08:22:58;;;;;;;66.00;32.03;;;-2.60;99.90;;;;;;5049161;28;20021;-39
2023/02/07 08:25:25;;;;;;;76.18;33.45;;;-2.50;99.90;;;;;;5050642;28;20029;-38
2023/02/07 08:27:50;;;;;;;59.28;29.75;;;-2.50;99.90;;;;;;5050625;28;20020;-39
2023/02/07 08:30:19;;;;;;;64.97;29.92;;;-2.40;99.90;;;;;;5050371;28;20040;-39
2023/02/07 08:32:50;;;;;;;65.05;28.95;;;-2.40;99.90;;;;;;5050996;28;20021;-39
2023/02/07 08:35:21;;;;;;;67.65;32.83;;;-2.30;99.90;;;;;;5066985;28;20021;-38
2023/02/07 08:37:54;;;;;;;60.38;29.60;;;-2.30;99.90;;;;;;5070339;28;20032;-39
2023/02/07 08:40:22;;;;;;;61.88;30.95;;;-2.20;99.90;;;;;;5057690;28;20023;-39
2023/02/07 08:42:47;;;;;;;64.32;32.65;;;-2.10;99.90;;;;;;5048191;28;20017;-38
2023/02/07 08:45:14;;;;;;;61.40;31.40;;;-2.00;99.90;;;;;;5049759;28;20071;-39
2023/02/07 08:47:40;;;;;;;60.95;29.67;;;-2.00;99.90;;;;;;5050400;28;20458;-39
2023/02/07 08:50:06;;;;;;;61.55;31.45;;;-1.90;99.90;;;;;;5045562;28;20021;-39
2023/02/07 08:52:32;;;;;;;63.60;30.65;;;-1.90;99.90;;;;;;5049907;28;20054;-39
2023/02/07 08:54:57;;;;;;;69.57;32.85;;;-1.80;99.90;;;;;;5049797;28;20052;-39
2023/02/07 08:57:24;;;;;;;71.00;31.30;;;-1.70;99.90;;;;;;5058688;28;20066;-39
2023/02/07 08:59:50;;;;;;;66.80;30.95;;;-1.60;99.90;;;;;;5063428;28;20516;-39
2023/02/07 09:02:16;;;;;;;62.67;30.85;;;-1.60;99.90;;;;;;5056258;28;20454;-38
2023/02/07 09:04:42;;;;;;;66.00;32.22;;;-1.50;99.90;;;;;;5049811;28;20079;-39
2023/02/07 09:07:09;;;;;;;66.32;32.03;;;-1.40;99.90;;;;;;5049960;28;20025;-39
2023/02/07 09:09:35;;;;;;;59.13;30.05;;;-1.40;99.90;;;;;;5050439;28;20025;-39
2023/02/07 09:12:00;;;;;;;60.63;31.10;;;-1.30;99.90;;;;;;5049674;28;20028;-39
2023/02/07 09:14:26;;;;;;;59.33;30.08;;;-1.20;99.90;;;;;;5049303;28;20393;-39
2023/02/07 09:16:51;;;;;;;53.53;27.20;;;-1.10;99.90;;;;;;5048722;28;20025;-38
2023/02/07 09:19:17;;;;;;;63.63;30.05;;;-1.00;99.90;;;;;;5048015;28;20025;-38
2023/02/07 09:21:43;;;;;;;55.30;28.00;;;-1.00;99.90;;;;;;5046021;28;20032;-38
2023/02/07 09:24:08;;;;;;;47.65;26.13;;;-0.90;99.90;;;;;;5049619;28;20421;-38
2023/02/07 09:26:35;;;;;;;60.90;28.92;;;-0.80;99.90;;;;;;5060556;28;20115;-39
2023/02/07 09:29:00;;;;;;;47.03;25.75;;;-0.70;99.90;;;;;;5054568;28;20109;-38
2023/02/07 09:31:26;;;;;;;47.30;24.70;;;-0.60;99.90;;;;;;5049363;28;20060;-38
2023/02/07 09:33:51;;;;;;;43.33;23.52;;;-0.50;99.90;;;;;;5047620;28;20017;-38
2023/02/07 09:36:26;;;;;;;40.80;21.52;;;-0.40;99.90;;;;;;5049113;28;20036;-39
2023/02/07 09:38:52;;;;;;;37.05;18.85;;;-0.30;99.90;;;;;;5049198;28;20478;-38
2023/02/07 09:41:48;;;;;;;34.78;19.17;;;-0.10;99.90;;;;;;5049063;28;20041;-38
2023/02/07 09:44:24;;;;;;;36.10;16.83;;;0.10;99.90;;;;;;5049100;28;20067;-38
2023/02/07 09:47:09;;;;;;;31.83;15.48;;;0.20;99.90;;;;;;5048604;28;20033;-38
2023/02/07 09:49:42;;;;;;;25.98;14.65;;;0.50;99.90;;;;;;5046289;28;20029;-38
2023/02/07 09:52:15;;;;;;;22.90;13.98;;;0.60;99.90;;;;;;5049193;28;20031;-38
2023/02/07 09:54:44;;;;;;;29.00;14.32;;;0.60;99.90;;;;;;5044010;28;20017;-39
2023/02/07 09:57:19;;;;;;;27.02;13.35;;;0.80;99.90;;;;;;5050375;28;20475;-38
2023/02/07 09:59:54;;;;;;;27.42;13.88;;;0.90;99.90;;;;;;5046746;28;20082;-38
2023/02/07 10:02:37;;;;;;;25.23;13.10;;;1.10;99.90;;;;;;5043931;28;20025;-38
2023/02/07 10:05:11;;;;;;;23.70;11.55;;;1.20;99.90;;;;;;5042573;28;20024;-38
2023/02/07 10:07:37;;;;;;;21.17;11.05;;;1.50;99.90;;;;;;5048517;28;20021;-38
2023/02/07 10:10:02;;;;;;;19.88;10.73;;;2.20;99.90;;;;;;5048777;28;20021;-39
2023/02/07 10:12:50;;;;;;;17.75;10.10;;;3.40;99.90;;;;;;5048637;28;20512;-39
2023/02/07 10:15:33;;;;;;;18.55;11.07;;;5.00;98.40;;;;;;5044926;28;20513;-39
2023/02/07 10:18:37;;;;;;;16.05;10.65;;;6.30;96.30;;;;;;5048012;28;20100;-37
2023/02/07 10:21:23;;;;;;;17.85;10.45;;;7.20;93.70;;;;;;5046121;28;20251;-38
2023/02/07 10:24:05;;;;;;;16.38;10.70;;;8.70;90.60;;;;;;5049103;28;20021;-38
2023/02/07 10:26:47;;;;;;;15.05;10.45;;;10.60;85.60;;;;;;5048281;28;20479;-38
2023/02/07 10:29:28;;;;;;;19.35;12.25;;;11.90;79.80;;;;;;5045130;28;20036;-38
2023/02/07 10:31:58;;;;;;;13.82;9.80;;;13.40;71.70;;;;;;5047499;28;20104;-39
2023/02/07 10:34:29;;;;;;;15.90;11.18;;;14.60;66.00;;;;;;5045844;28;20044;-39
2023/02/07 10:36:57;;;;;;;13.52;10.73;;;15.70;61.90;;;;;;5047688;28;20041;-39
2023/02/07 10:39:41;;;;;;;14.13;10.88;;;16.20;60.50;;;;;;5047205;28;20028;-39
2023/02/07 10:42:14;;;;;;;14.48;11.20;;;17.10;58.40;;;;;;5046457;28;20028;-38
2023/02/07 10:44:39;;;;;;;15.50;11.23;;;17.50;56.40;;;;;;5047285;28;20103;-39
2023/02/07 10:47:08;;;;;;;12.68;11.38;;;18.30;51.90;;;;;;5047897;28;20420;-39
2023/02/07 10:49:36;;;;;;;16.30;11.10;;;18.50;51.60;;;;;;5047400;28;20040;-39
2023/02/07 10:52:27;;;;;;;14.23;10.93;;;18.30;51.90;;;;;;5047612;28;20025;-39
2023/02/07 10:55:06;;;;;;;11.68;10.48;;;17.90;51.20;;;;;;5032239;28;20036;-40
2023/02/07 10:57:32;;;;;;;14.05;10.38;;;18.90;49.20;;;;;;5046570;28;20478;-40
2023/02/07 11:00:07;;;;;;;13.25;10.25;;;19.40;49.00;;;;;;5048019;28;20079;-40
2023/02/07 11:02:43;;;;;;;12.35;9.80;;;19.70;47.80;;;;;;5047624;28;20024;-40
2023/02/07 11:05:14;;;;;;;12.77;9.57;;;19.40;47.50;;;;;;5047184;28;20017;-39
2023/02/07 11:07:40;;;;;;;10.65;9.23;;;19.70;47.40;;;;;;5048172;28;20108;-39
2023/02/07 11:10:22;;;;;;;11.15;9.75;;;19.50;44.30;;;;;;5049797;28;20017;-39
2023/02/07 11:12:54;;;;;;;12.25;8.85;;;18.80;45.50;;;;;;5041316;28;20104;-39
2023/02/07 11:15:25;;;;;;;11.60;9.02;;;18.20;46.40;;;;;;5046354;28;20028;-40
2023/02/07 11:17:54;;;;;;;11.18;8.48;;;18.50;48.40;;;;;;5047460;28;20032;-39
2023/02/07 11:20:33;;;;;;;11.23;8.73;;;18.30;46.80;;;;;;5049226;28;20048;-39
2023/02/07 11:22:59;;;;;;;9.98;8.48;;;18.40;46.30;;;;;;5066980;28;20032;-39
2023/02/07 11:25:37;;;;;;;12.43;9.30;;;17.90;48.60;;;;;;5067790;28;20348;-39
2023/02/07 11:28:03;;;;;;;11.20;8.52;;;18.60;46.40;;;;;;5066958;28;20548;-39
2023/02/07 11:30:33;;;;;;;13.57;9.35;;;18.90;45.60;;;;;;5068178;28;20035;-39
2023/02/07 11:33:04;;;;;;;;;;;18.40;47.20;;;;;;5054550;28;20060;-39
2023/02/07 11:35:29;;;;;;;11.77;9.48;;;18.20;46.20;;;;;;5050628;28;19904;-41
2023/02/07 11:38:00;;;;;;;11.77;9.38;;;18.40;45.90;;;;;;5059106;28;20394;-39
2023/02/07 11:40:44;;;;;;;13.63;9.35;;;18.10;47.90;;;;;;5049857;28;20097;-39
2023/02/07 11:43:15;;;;;;;12.40;8.98;;;18.20;46.60;;;;;;5047846;28;20032;-39
2023/02/07 11:45:48;;;;;;;13.65;8.80;;;18.70;46.10;;;;;;5047274;28;20074;-40
2023/02/07 11:48:20;;;;;;;12.45;8.07;;;18.50;46.70;;;;;;5047753;28;20049;-39
2023/02/07 11:50:55;;;;;;;12.20;8.18;;;18.70;46.40;;;;;;5047544;28;20025;-40
2023/02/07 11:53:40;;;;;;;10.25;7.95;;;19.60;45.30;;;;;;5044907;28;20421;-40
2023/02/07 11:56:18;;;;;;;11.30;8.77;;;18.60;44.50;;;;;;5044348;28;20120;-39
2023/02/07 11:58:47;;;;;;;15.30;9.00;;;18.30;44.10;;;;;;5047874;28;20445;-39
2023/02/07 12:01:17;;;;;;;11.35;8.77;;;18.10;44.20;;;;;;5046349;28;20055;-40
2023/02/07 12:03:57;;;;;;;18.35;9.98;;;18.20;45.50;;;;;;5046344;28;20449;-39
2023/02/07 12:06:45;;;;;;;11.00;9.25;;;17.90;45.40;;;;;;5056718;28;20439;-38
2023/02/07 12:09:37;;;;;;;12.75;8.05;;;17.60;45.80;;;;;;5067809;28;20028;-39
2023/02/07 12:12:08;;;;;;;9.85;7.63;;;18.00;42.90;;;;;;5042837;28;20060;-39
2023/02/07 12:14:49;;;;;;;10.90;8.13;;;18.00;44.10;;;;;;5045707;28;20111;-39
2023/02/07 12:17:22;;;;;;;;;;;18.00;42.70;;;;;;5045297;28;20424;-38
2023/02/07 12:20:25;;;;;;;8.93;7.38;;;17.70;44.30;;;;;;5054352;28;19916;-39
2023/02/07 12:23:12;;;;;;;9.27;7.43;;;17.90;42.20;;;;;;5046897;28;20310;-39
2023/02/07 12:25:47;;;;;;;10.32;7.35;;;16.90;45.10;;;;;;5044420;28;20502;-39
2023/02/07 12:28:32;;;;;;;8.80;7.18;;;15.90;43.70;;;;;;5049555;28;20028;-39
2023/02/07 12:31:04;;;;;;;16.85;11.43;;;16.00;46.90;;;;;;5051031;28;20021;-39
2023/02/07 12:33:35;;;;;;;18.30;13.43;;;15.80;49.90;;;;;;5048069;28;20116;-39
2023/02/07 12:36:22;;;;;;;16.63;12.68;;;16.00;49.90;;;;;;5055615;28;20470;-40
2023/02/07 12:39:25;;;;;;;18.80;13.48;;;16.10;51.30;;;;;;5051284;28;20152;-40
2023/02/07 12:42:12;;;;;;;17.35;13.32;;;15.30;51.30;;;;;;5044152;28;20067;-40
2023/02/07 12:44:50;;;;;;;16.88;12.88;;;15.00;53.80;;;;;;5050451;28;20016;-39
2023/02/07 12:47:47;;;;;;;22.70;15.18;;;14.70;52.30;;;;;;5051134;28;20522;-40
2023/02/07 12:50:27;;;;;;;18.85;14.32;;;14.20;53.80;;;;;;5051008;28;20025;-40